createdAt,value
2018-04-08T00:00:38.341Z,12.37
2018-04-08T00:03:05.834Z,13.23
2018-04-08T00:05:33.314Z,12.40
2018-04-08T00:08:00.785Z,19.13
2018-04-08T00:10:28.286Z,12.30
2018-04-08T00:12:55.750Z,16.60
2018-04-08T00:15:23.266Z,11.77
2018-04-08T00:17:50.756Z,16.53
2018-04-08T00:20:18.248Z,12.43
2018-04-08T00:22:45.740Z,12.80
2018-04-08T00:25:13.294Z,17.17
2018-04-08T00:27:40.750Z,13.23
2018-04-08T00:30:08.210Z,16.07
2018-04-08T00:32:35.664Z,13.27
2018-04-08T00:35:03.150Z,16.27
2018-04-08T00:37:30.644Z,14.23
2018-04-08T00:39:58.146Z,16.23
2018-04-08T00:42:25.607Z,13.97
2018-04-08T00:44:53.082Z,17.23
2018-04-08T00:47:21.326Z,12.77
2018-04-08T00:49:48.786Z,18.23
2018-04-08T00:52:16.248Z,12.93
2018-04-08T00:54:43.716Z,15.32
2018-04-08T00:57:11.187Z,15.23
2018-04-08T00:59:38.659Z,19.07
2018-04-08T01:02:06.188Z,14.10
2018-04-08T01:04:33.648Z,17.43
2018-04-08T01:07:01.110Z,14.00
2018-04-08T01:09:28.576Z,16.93
2018-04-08T01:11:56.051Z,13.77
2018-04-08T01:14:23.564Z,19.73
2018-04-08T01:16:51.044Z,17.83
2018-04-08T01:19:18.523Z,17.53
2018-04-08T01:21:45.981Z,20.13
2018-04-08T01:24:13.474Z,20.20
2018-04-08T01:26:40.904Z,16.33
2018-04-08T01:29:08.400Z,14.43
2018-04-08T01:31:35.866Z,18.27
2018-04-08T01:34:03.330Z,19.57
2018-04-08T01:36:30.780Z,16.80
2018-04-08T01:38:58.266Z,19.30
2018-04-08T01:41:25.764Z,19.33
2018-04-08T01:43:53.223Z,17.67
2018-04-08T01:46:20.668Z,20.20
2018-04-08T01:48:48.170Z,16.43
2018-04-08T01:51:15.628Z,14.60
2018-04-08T01:53:43.083Z,18.23
2018-04-08T01:56:10.554Z,17.33
2018-04-08T01:58:38.104Z,17.60
2018-04-08T02:01:05.560Z,19.90
2018-04-08T02:03:33.051Z,17.60
2018-04-08T02:06:00.666Z,17.40
2018-04-08T02:08:28.140Z,16.63
2018-04-08T02:10:55.632Z,17.20
2018-04-08T02:13:23.071Z,18.17
2018-04-08T02:15:50.618Z,15.23
2018-04-08T02:18:18.104Z,18.10
2018-04-08T02:20:45.559Z,16.27
2018-04-08T02:23:13.017Z,21.40
2018-04-08T02:25:40.542Z,17.63
2018-04-08T02:28:08.740Z,17.23
2018-04-08T02:30:36.212Z,19.37
2018-04-08T02:33:03.678Z,19.13
2018-04-08T02:35:31.212Z,18.07
2018-04-08T02:37:58.668Z,16.40
2018-04-08T02:40:26.148Z,16.70
2018-04-08T02:42:53.608Z,19.13
2018-04-08T02:45:21.169Z,18.80
2018-04-08T02:47:50.766Z,19.20
2018-04-08T02:50:18.233Z,18.50
2018-04-08T02:52:45.688Z,19.77
2018-04-08T02:55:13.130Z,16.13
2018-04-08T02:57:40.587Z,17.50
2018-04-08T03:00:09.952Z,19.10
2018-04-08T03:02:38.506Z,19.60
2018-04-08T03:05:07.036Z,17.40
2018-04-08T03:07:34.524Z,16.90
2018-04-08T03:10:03.213Z,16.43
2018-04-08T03:12:30.688Z,17.13
2018-04-08T03:14:58.212Z,19.93
2018-04-08T03:17:25.749Z,21.33
2018-04-08T03:19:53.317Z,19.43
2018-04-08T03:22:20.911Z,17.53
2018-04-08T03:24:48.562Z,16.47
2018-04-08T03:27:16.066Z,19.73
2018-04-08T03:29:43.650Z,18.60
2018-04-08T03:34:53.921Z,17.03
2018-04-08T03:37:22.167Z,19.20
2018-04-08T03:39:49.833Z,17.63
2018-04-08T03:42:17.311Z,17.17
2018-04-08T03:44:46.633Z,16.23
2018-04-08T03:47:14.299Z,19.43
2018-04-08T03:49:41.866Z,17.23
2018-04-08T03:52:09.393Z,19.40
2018-04-08T03:54:37.507Z,16.53
2018-04-08T03:57:05.138Z,15.63
2018-04-08T03:59:32.751Z,15.67
2018-04-08T04:02:00.314Z,16.13
2018-04-08T04:04:27.888Z,15.93
2018-04-08T04:06:55.368Z,17.87
2018-04-08T04:09:22.944Z,17.87
2018-04-08T04:11:50.603Z,18.10
2018-04-08T04:14:18.174Z,19.30
2018-04-08T04:16:46.582Z,17.87
2018-04-08T04:19:26.552Z,16.37
2018-04-08T04:22:05.716Z,16.17
2018-04-08T04:24:45.587Z,16.93
2018-04-08T04:27:14.048Z,18.80
2018-04-08T04:29:41.500Z,17.80
2018-04-08T04:32:08.963Z,18.83
2018-04-08T04:34:37.137Z,19.90
2018-04-08T04:37:04.649Z,19.50
2018-04-08T04:39:32.098Z,16.00
2018-04-08T04:41:59.572Z,20.93
2018-04-08T04:44:27.035Z,18.53
2018-04-08T04:46:54.511Z,18.67
2018-04-08T04:49:21.957Z,17.57
2018-04-08T04:51:49.437Z,18.13
2018-04-08T04:54:16.892Z,17.37
2018-04-08T04:56:45.034Z,20.90
2018-04-08T04:59:12.487Z,21.13
2018-04-08T05:01:39.999Z,19.23
2018-04-08T05:04:07.436Z,20.53
2018-04-08T05:06:34.899Z,20.43
2018-04-08T05:09:02.389Z,19.10
2018-04-08T05:11:29.855Z,19.97
2018-04-08T05:13:57.331Z,18.23
2018-04-08T05:16:24.751Z,20.03
2018-04-08T05:18:52.246Z,19.67
2018-04-08T05:21:19.728Z,19.63
2018-04-08T05:23:47.205Z,21.40
2018-04-08T05:26:14.765Z,18.93
2018-04-08T05:28:42.267Z,17.17
2018-04-08T05:31:09.724Z,22.17
2018-04-08T05:33:37.195Z,18.27
2018-04-08T05:36:04.653Z,18.23
2018-04-08T05:38:32.111Z,19.07
2018-04-08T05:40:59.625Z,21.80
2018-04-08T05:43:27.058Z,22.00
2018-04-08T05:45:54.514Z,18.77
2018-04-08T05:48:21.975Z,19.53
2018-04-08T05:50:49.406Z,19.63
2018-04-08T05:53:16.899Z,19.50
2018-04-08T05:55:44.367Z,20.57
2018-04-08T05:58:11.818Z,20.27
2018-04-08T06:00:39.281Z,20.33
2018-04-08T06:03:06.827Z,19.73
2018-04-08T06:05:34.277Z,19.40
2018-04-08T06:08:01.869Z,16.93
2018-04-08T06:10:29.307Z,17.97
2018-04-08T06:12:56.819Z,18.20
2018-04-08T06:15:24.272Z,19.77
2018-04-08T06:17:51.705Z,18.50
2018-04-08T06:20:19.165Z,17.07
2018-04-08T06:22:46.663Z,18.77
2018-04-08T06:25:14.144Z,15.17
2018-04-08T06:27:41.633Z,16.27
2018-04-08T06:30:09.069Z,17.23
2018-04-08T06:32:36.546Z,15.10
2018-04-08T06:35:03.987Z,17.43
2018-04-08T06:37:31.570Z,17.20
2018-04-08T06:39:59.025Z,17.70
2018-04-08T06:42:26.481Z,17.43
2018-04-08T06:44:53.951Z,15.97
2018-04-08T06:47:21.399Z,14.30
2018-04-08T06:49:48.852Z,15.17
2018-04-08T06:52:16.522Z,16.50
2018-04-08T06:54:44.045Z,16.10
2018-04-08T06:57:11.529Z,13.73
2018-04-08T06:59:38.983Z,13.43
2018-04-08T07:02:06.430Z,15.83
2018-04-08T07:04:33.908Z,14.77
2018-04-08T07:07:01.364Z,15.83
2018-04-08T07:09:28.822Z,15.53
2018-04-08T07:11:56.321Z,13.90
2018-04-08T07:14:23.771Z,14.87
2018-04-08T07:16:51.288Z,16.83
2018-04-08T07:19:18.722Z,15.83
2018-04-08T07:21:46.189Z,14.53
2018-04-08T07:24:13.630Z,15.47
2018-04-08T07:26:41.082Z,14.73
2018-04-08T07:29:08.600Z,14.33
2018-04-08T07:31:36.073Z,13.90
2018-04-08T07:34:03.563Z,14.27
2018-04-08T07:36:31.012Z,14.47
2018-04-08T07:38:58.478Z,13.73
2018-04-08T07:41:25.932Z,15.60
2018-04-08T07:43:53.392Z,13.00
2018-04-08T07:46:20.843Z,13.47
2018-04-08T07:48:48.282Z,12.40
2018-04-08T07:51:15.743Z,13.00
2018-04-08T07:53:43.216Z,15.73
2018-04-08T07:56:10.655Z,14.13
2018-04-08T07:58:38.137Z,13.67
2018-04-08T08:01:05.592Z,12.43
2018-04-08T08:03:33.098Z,13.23
2018-04-08T08:06:00.552Z,15.73
2018-04-08T08:08:27.994Z,13.03
2018-04-08T08:10:55.465Z,13.10
2018-04-08T08:13:22.896Z,13.63
2018-04-08T08:15:50.438Z,13.70
2018-04-08T08:18:17.948Z,13.90
2018-04-08T08:20:45.430Z,14.63
2018-04-08T08:23:12.888Z,13.60
2018-04-08T08:25:40.370Z,13.50
2018-04-08T08:28:07.830Z,15.87
2018-04-08T08:30:35.358Z,16.93
2018-04-08T08:33:02.820Z,14.43
2018-04-08T08:35:30.465Z,14.43
2018-04-08T08:37:57.964Z,13.90
2018-04-08T08:40:25.468Z,11.70
2018-04-08T08:42:52.957Z,14.23
2018-04-08T08:45:20.775Z,12.23
2018-04-08T08:47:48.434Z,15.33
2018-04-08T08:50:15.922Z,13.47
2018-04-08T08:52:43.441Z,15.53
2018-04-08T08:55:10.920Z,13.20
2018-04-08T08:57:38.430Z,15.60
2018-04-08T09:00:05.978Z,13.07
2018-04-08T09:02:33.452Z,15.27
2018-04-08T09:05:00.950Z,12.97
2018-04-08T09:07:28.406Z,15.87
2018-04-08T09:09:55.911Z,14.25
2018-04-08T09:12:23.433Z,14.30
2018-04-08T09:14:50.886Z,17.17
2018-04-08T09:17:18.479Z,13.68
2018-04-08T09:22:58.821Z,16.87
2018-04-08T09:25:29.744Z,12.60
2018-04-08T09:27:57.284Z,15.80
2018-04-08T09:30:24.799Z,13.10
2018-04-08T09:32:52.306Z,16.73
2018-04-08T09:35:19.858Z,12.30
2018-04-08T09:37:47.308Z,16.17
2018-04-08T09:40:14.799Z,14.10
2018-04-08T09:42:42.350Z,15.27
2018-04-08T09:45:09.877Z,16.83
2018-04-08T09:47:37.385Z,14.07
2018-04-08T09:50:04.928Z,14.80
2018-04-08T09:52:32.420Z,16.80
2018-04-08T09:54:59.963Z,15.20
2018-04-08T09:57:31.261Z,15.80
2018-04-08T09:59:58.778Z,16.25
2018-04-08T10:02:36.879Z,15.27
2018-04-08T10:05:04.432Z,15.48
2018-04-08T10:07:31.996Z,15.23
2018-04-08T10:09:59.494Z,15.50
2018-04-08T10:12:26.965Z,15.57
2018-04-08T10:14:54.431Z,15.27
2018-04-08T10:17:21.899Z,15.15
2018-04-08T10:19:49.346Z,15.88
2018-04-08T10:22:17.620Z,15.32
2018-04-08T10:24:45.959Z,14.27
2018-04-08T10:27:13.436Z,16.67
2018-04-08T10:29:40.914Z,15.60
2018-04-08T10:32:08.372Z,15.07
2018-04-08T10:34:35.880Z,15.45
2018-04-08T10:37:03.399Z,16.17
2018-04-08T10:39:31.048Z,15.48
2018-04-08T10:42:00.357Z,15.93
2018-04-08T10:44:27.982Z,16.02
2018-04-08T10:46:55.581Z,14.70
2018-04-08T10:49:23.288Z,13.98
2018-04-08T10:51:51.593Z,14.10
2018-04-08T10:54:19.030Z,13.48
2018-04-08T10:56:46.520Z,13.07
2018-04-08T10:59:14.036Z,14.25
2018-04-08T11:01:41.697Z,12.40
2018-04-08T11:04:09.158Z,13.75
2018-04-08T11:06:36.752Z,13.27
2018-04-08T11:09:04.492Z,13.65
2018-04-08T11:11:32.284Z,12.23
2018-04-08T11:13:59.968Z,13.20
2018-04-08T11:16:27.558Z,12.98
2018-04-08T11:18:55.082Z,12.40
2018-04-08T11:21:27.362Z,13.73
2018-04-08T11:23:54.908Z,13.13
2018-04-08T11:26:24.008Z,15.35
2018-04-08T11:28:51.524Z,11.85
2018-04-08T11:31:19.053Z,12.00
2018-04-08T11:33:46.571Z,12.70
2018-04-08T11:36:14.994Z,13.35
2018-04-08T11:38:42.506Z,13.85
2018-04-08T11:41:10.080Z,14.40
2018-04-08T11:43:37.555Z,13.93
2018-04-08T11:46:05.072Z,13.02
2018-04-08T11:48:32.682Z,12.32
2018-04-08T11:51:00.230Z,13.95
2018-04-08T11:53:30.252Z,14.07
2018-04-08T11:55:59.543Z,14.43
2018-04-08T11:58:27.429Z,14.20
2018-04-08T12:00:54.948Z,14.68
2018-04-08T12:03:22.464Z,15.55
2018-04-08T12:05:50.472Z,13.20
2018-04-08T12:08:17.999Z,14.27
2018-04-08T12:10:45.517Z,13.13
2018-04-08T12:13:13.040Z,13.50
2018-04-08T12:15:41.373Z,13.10
2018-04-08T12:18:08.903Z,13.50
2018-04-08T12:20:37.365Z,13.40
2018-04-08T12:23:04.864Z,12.00
2018-04-08T12:25:32.405Z,10.90
2018-04-08T12:27:59.929Z,11.05
2018-04-08T12:30:27.397Z,11.40
2018-04-08T12:32:54.873Z,10.95
2018-04-08T12:35:22.325Z,11.07
2018-04-08T12:37:49.785Z,9.70
2018-04-08T12:40:17.239Z,9.55
2018-04-08T12:42:44.693Z,9.52
2018-04-08T12:45:12.183Z,8.93
2018-04-08T12:47:39.657Z,10.77
2018-04-08T12:50:07.124Z,9.75
2018-04-08T12:52:34.599Z,8.98
2018-04-08T12:55:02.055Z,10.02
2018-04-08T12:57:29.513Z,9.48
2018-04-08T12:59:57.002Z,9.27
2018-04-08T13:02:24.463Z,9.55
2018-04-08T13:04:51.917Z,10.70
2018-04-08T13:07:19.413Z,11.07
2018-04-08T13:09:46.901Z,10.68
2018-04-08T13:12:14.363Z,11.55
2018-04-08T13:14:41.827Z,11.90
2018-04-08T13:17:09.281Z,11.65
2018-04-08T13:19:36.760Z,12.10
2018-04-08T13:22:04.285Z,11.60
2018-04-08T13:24:31.769Z,12.45
2018-04-08T13:26:59.274Z,13.40
2018-04-08T13:29:26.733Z,14.75
2018-04-08T13:31:54.225Z,12.48
2018-04-08T13:34:22.507Z,15.80
2018-04-08T13:36:50.034Z,14.85
2018-04-08T13:39:17.527Z,13.80
2018-04-08T13:41:44.999Z,14.65
2018-04-08T13:44:12.598Z,15.35
2018-04-08T13:46:40.086Z,16.20
2018-04-08T13:49:07.551Z,16.75
2018-04-08T13:51:35.005Z,15.52
2018-04-08T13:54:02.523Z,15.82
2018-04-08T13:56:30.021Z,15.77
2018-04-08T13:58:57.615Z,15.35
2018-04-08T14:01:25.109Z,15.35
2018-04-08T14:03:52.575Z,16.17
2018-04-08T14:06:20.071Z,16.20
2018-04-08T14:08:47.550Z,17.05
2018-04-08T14:11:15.049Z,16.27
2018-04-08T14:13:42.569Z,18.65
2018-04-08T14:16:11.934Z,18.80
2018-04-08T14:18:39.459Z,18.52
2018-04-08T14:21:06.927Z,18.00
2018-04-08T14:23:34.490Z,16.65
2018-04-08T14:26:01.936Z,20.67
2018-04-08T14:28:30.565Z,20.65
2018-04-08T14:30:58.100Z,19.42
2018-04-08T14:33:25.827Z,17.55
2018-04-08T14:35:53.407Z,20.98
2018-04-08T14:38:20.913Z,20.00
2018-04-08T14:40:48.401Z,17.35
2018-04-08T14:43:15.881Z,17.80
2018-04-08T14:45:43.401Z,19.58
2018-04-08T14:48:11.059Z,18.23
2018-04-08T14:50:39.294Z,19.23
2018-04-08T14:53:07.604Z,19.25
2018-04-08T14:55:35.142Z,19.45
2018-04-08T14:58:03.605Z,18.77
2018-04-08T15:00:31.117Z,19.83
2018-04-08T15:02:58.595Z,19.70
2018-04-08T15:05:26.088Z,19.30
2018-04-08T15:07:53.652Z,18.92
2018-04-08T15:10:21.381Z,20.52
2018-04-08T15:12:48.886Z,20.17
2018-04-08T15:15:16.512Z,20.10
2018-04-08T15:17:43.992Z,20.10
2018-04-08T15:20:11.509Z,18.30
2018-04-08T15:22:39.008Z,21.95
2018-04-08T15:25:06.525Z,20.02
2018-04-08T15:27:34.102Z,21.10
2018-04-08T15:30:01.547Z,20.95
2018-04-08T15:32:29.059Z,20.25
2018-04-08T15:34:56.551Z,22.05
2018-04-08T15:37:24.043Z,20.20
2018-04-08T15:39:51.544Z,20.33
2018-04-08T15:42:19.036Z,20.98
2018-04-08T15:44:46.554Z,20.08
2018-04-08T15:47:14.057Z,20.95
2018-04-08T15:49:42.288Z,20.02
2018-04-08T15:52:09.823Z,21.12
2018-04-08T15:54:37.305Z,19.33
2018-04-08T15:57:05.796Z,22.27
2018-04-08T15:59:33.349Z,20.85
2018-04-08T16:02:00.940Z,21.40
2018-04-08T16:04:28.529Z,21.73
2018-04-08T16:06:56.008Z,20.77
2018-04-08T16:09:23.483Z,22.15
2018-04-08T16:11:52.502Z,23.10
2018-04-08T16:14:20.041Z,24.75
2018-04-08T16:16:48.616Z,23.00
2018-04-08T16:19:16.162Z,22.87
2018-04-08T16:21:43.681Z,23.25
2018-04-08T16:24:11.190Z,23.55
2018-04-08T16:26:38.703Z,22.67
2018-04-08T16:29:06.201Z,30.58
2018-04-08T16:31:33.751Z,25.77
2018-04-08T16:34:01.214Z,24.35
2018-04-08T16:36:28.715Z,23.95
2018-04-08T16:38:56.257Z,22.55
2018-04-08T16:41:23.745Z,24.12
2018-04-08T16:43:51.218Z,24.08
2018-04-08T16:46:18.757Z,23.23
2018-04-08T16:48:46.253Z,25.90
2018-04-08T16:51:13.713Z,25.12
2018-04-08T16:53:41.207Z,24.30
2018-04-08T16:56:08.686Z,24.77
2018-04-08T16:58:36.211Z,24.87
2018-04-08T17:01:03.702Z,24.00
2018-04-08T17:03:31.241Z,24.58
2018-04-08T17:05:58.723Z,23.50
2018-04-08T17:08:26.196Z,24.23
2018-04-08T17:10:53.710Z,23.98
2018-04-08T17:13:21.214Z,24.15
2018-04-08T17:15:48.768Z,25.55
2018-04-08T17:18:16.270Z,24.12
2018-04-08T17:20:43.766Z,24.15
2018-04-08T17:23:11.328Z,24.73
2018-04-08T17:25:38.791Z,24.55
2018-04-08T17:28:06.361Z,24.30
2018-04-08T17:30:33.853Z,23.67
2018-04-08T17:33:01.346Z,24.48
2018-04-08T17:35:28.804Z,26.30
2018-04-08T17:37:56.294Z,26.33
2018-04-08T17:40:23.882Z,24.52
2018-04-08T17:42:51.405Z,25.55
2018-04-08T17:45:18.927Z,24.52
2018-04-08T17:47:46.458Z,24.83
2018-04-08T17:50:13.978Z,26.58
2018-04-08T17:52:41.524Z,26.90
2018-04-08T17:55:08.998Z,24.55
2018-04-08T17:57:36.462Z,26.25
2018-04-08T18:00:03.950Z,25.75
2018-04-08T18:02:31.420Z,26.05
2018-04-08T18:04:58.888Z,27.05
2018-04-08T18:07:26.386Z,25.92
2018-04-08T18:09:53.934Z,29.25
2018-04-08T18:12:21.463Z,27.95
2018-04-08T18:14:48.933Z,28.40
2018-04-08T18:17:16.464Z,30.62
2018-04-08T18:19:43.940Z,30.00
2018-04-08T18:22:11.472Z,32.42
2018-04-08T18:24:39.005Z,41.88
2018-04-08T18:27:06.437Z,32.15
2018-04-08T18:29:43.511Z,34.88
2018-04-08T18:32:10.970Z,35.45
2018-04-08T18:34:38.442Z,36.97
2018-04-08T18:37:05.923Z,33.15
2018-04-08T18:39:33.536Z,34.50
2018-04-08T18:42:01.034Z,32.55
2018-04-08T18:44:28.560Z,32.13
2018-04-08T18:46:59.840Z,34.40
2018-04-08T18:49:27.347Z,41.15
2018-04-08T18:51:55.276Z,36.42
2018-04-08T18:54:22.763Z,42.62
2018-04-08T18:56:50.241Z,32.15
2018-04-08T18:59:17.772Z,34.35
2018-04-08T19:01:45.234Z,31.62
2018-04-08T19:04:13.303Z,32.70
2018-04-08T19:06:40.753Z,35.22
2018-04-08T19:09:08.472Z,34.25
2018-04-08T19:11:36.118Z,34.20
2018-04-08T19:14:04.500Z,41.63
2018-04-08T19:16:32.132Z,34.03
2018-04-08T19:18:59.680Z,40.42
2018-04-08T19:21:27.250Z,34.17
2018-04-08T19:23:54.762Z,35.00
2018-04-08T19:26:22.295Z,32.67
2018-04-08T19:28:49.754Z,44.88
2018-04-08T19:31:17.239Z,30.52
2018-04-08T19:33:44.722Z,34.13
2018-04-08T19:36:12.527Z,42.67
2018-04-08T19:38:40.030Z,32.97
2018-04-08T19:41:07.622Z,41.30
2018-04-08T19:43:35.155Z,34.20
2018-04-08T19:46:02.731Z,46.95
2018-04-08T19:48:30.202Z,31.12
2018-04-08T19:50:57.709Z,42.30
2018-04-08T19:53:25.182Z,30.37
2018-04-08T19:55:52.732Z,40.33
2018-04-08T19:58:21.046Z,32.00
2018-04-08T20:00:48.584Z,39.92
2018-04-08T20:03:16.034Z,29.70
2018-04-08T20:05:43.634Z,39.75
2018-04-08T20:08:11.094Z,32.35
2018-04-08T20:10:38.554Z,39.08
2018-04-08T20:13:06.014Z,29.83
2018-04-08T20:15:33.500Z,38.47
2018-04-08T20:18:00.956Z,30.12
2018-04-08T20:20:28.437Z,29.73
2018-04-08T20:22:55.894Z,38.47
2018-04-08T20:25:23.431Z,31.85
2018-04-08T20:27:50.918Z,29.80
2018-04-08T20:30:18.376Z,36.97
2018-04-08T20:32:45.832Z,31.48
2018-04-08T20:35:14.210Z,34.97
2018-04-08T20:37:41.742Z,30.42
2018-04-08T20:40:10.121Z,31.95
2018-04-08T20:42:37.630Z,30.80
2018-04-08T20:45:05.124Z,37.97
2018-04-08T20:47:33.266Z,28.60
2018-04-08T20:50:04.852Z,35.33
2018-04-08T20:52:32.300Z,28.92
2018-04-08T20:54:59.806Z,36.20
2018-04-08T20:57:27.264Z,29.63
2018-04-08T20:59:54.790Z,39.90
2018-04-08T21:02:22.295Z,30.17
2018-04-08T21:04:49.816Z,34.77
2018-04-08T21:07:17.325Z,29.93
2018-04-08T21:09:44.840Z,38.47
2018-04-08T21:12:12.476Z,28.85
2018-04-08T21:14:39.936Z,34.17
2018-04-08T21:17:07.470Z,28.77
2018-04-08T21:19:35.022Z,33.13
2018-04-08T21:22:02.523Z,29.43
2018-04-08T21:24:30.045Z,35.20
2018-04-08T21:26:57.551Z,30.45
2018-04-08T21:29:25.004Z,35.83
2018-04-08T21:31:52.562Z,29.23
2018-04-08T21:34:20.057Z,37.40
2018-04-08T21:36:47.526Z,30.35
2018-04-08T21:39:14.985Z,39.17
2018-04-08T21:41:42.440Z,29.47
2018-04-08T21:44:09.920Z,37.67
2018-04-08T21:46:37.393Z,28.90
2018-04-08T21:49:19.143Z,28.93
2018-04-08T21:51:46.605Z,33.17
2018-04-08T21:54:14.066Z,28.60
2018-04-08T21:56:41.538Z,28.40
2018-04-08T21:59:08.981Z,33.90
2018-04-08T22:01:36.435Z,28.63
2018-04-08T22:04:03.927Z,36.30
2018-04-08T22:06:31.362Z,30.73
2018-04-08T22:08:58.860Z,39.97
2018-04-08T22:11:26.313Z,29.00
2018-04-08T22:13:53.756Z,36.67
2018-04-08T22:16:21.230Z,31.27
2018-04-08T22:18:48.717Z,40.20
2018-04-08T22:21:16.195Z,30.75
2018-04-08T22:23:43.653Z,35.40
2018-04-08T22:26:11.153Z,30.50
2018-04-08T22:28:38.619Z,40.40
2018-04-08T22:31:06.063Z,33.60
2018-04-08T22:33:33.543Z,40.13
2018-04-08T22:36:00.991Z,32.20
2018-04-08T22:38:28.431Z,40.53
2018-04-08T22:40:55.897Z,31.15
2018-04-08T22:43:23.364Z,41.13
2018-04-08T22:45:50.828Z,31.07
2018-04-08T22:48:18.279Z,40.70
2018-04-08T22:50:45.744Z,31.63
2018-04-08T22:53:13.228Z,40.07
2018-04-08T22:55:40.663Z,32.20
2018-04-08T22:58:08.160Z,42.07
2018-04-08T23:00:35.636Z,32.07
2018-04-08T23:03:03.115Z,41.63
2018-04-08T23:05:30.559Z,31.67
2018-04-08T23:07:58.115Z,43.93
2018-04-08T23:10:25.610Z,32.47
2018-04-08T23:12:53.122Z,43.10
2018-04-08T23:15:21.048Z,33.20
2018-04-08T23:17:48.514Z,40.10
2018-04-08T23:20:15.973Z,45.93
2018-04-08T23:22:43.457Z,36.70
2018-04-08T23:25:10.939Z,42.63
2018-04-08T23:27:38.439Z,43.53
2018-04-08T23:30:05.941Z,45.53
2018-04-08T23:32:33.423Z,45.83
2018-04-08T23:35:00.873Z,46.90
2018-04-08T23:37:28.340Z,36.57
2018-04-08T23:39:56.047Z,44.40
2018-04-08T23:42:23.517Z,45.73
2018-04-08T23:44:50.971Z,36.30
2018-04-08T23:47:18.433Z,49.80
2018-04-08T23:49:45.884Z,51.60
2018-04-08T23:52:13.365Z,50.00
2018-04-08T23:54:40.847Z,47.07
2018-04-08T23:57:08.299Z,48.40
2018-04-08T23:59:35.761Z,47.77
